sensor_id;sensor_type;location;lat;lon;timestamp;pressure;altitude;pressure_sealevel;temperature;humidity
74334;BME280;62753;40.394;-80.022;2023-01-09T00:00:48;97419.03;;;11.47;27.70
74334;BME280;62753;40.394;-80.022;2023-01-09T00:03:13;97410.76;;;10.97;28.06
74334;BME280;62753;40.394;-80.022;2023-01-09T00:05:38;97403.20;;;10.47;29.06
74334;BME280;62753;40.394;-80.022;2023-01-09T00:08:05;97397.58;;;11.13;28.45
74334;BME280;62753;40.394;-80.022;2023-01-09T00:10:30;97397.35;;;10.83;28.68
74334;BME280;62753;40.394;-80.022;2023-01-09T00:12:56;97399.88;;;10.75;28.60
74334;BME280;62753;40.394;-80.022;2023-01-09T00:15:21;97401.09;;;10.95;28.39
74334;BME280;62753;40.394;-80.022;2023-01-09T00:17:46;97402.62;;;11.63;28.09
74334;BME280;62753;40.394;-80.022;2023-01-09T00:20:12;97404.51;;;11.58;27.66
74334;BME280;62753;40.394;-80.022;2023-01-09T00:22:38;97406.96;;;11.82;27.57
74334;BME280;62753;40.394;-80.022;2023-01-09T00:25:04;97409.60;;;12.11;26.84
74334;BME280;62753;40.394;-80.022;2023-01-09T00:27:30;97404.30;;;12.27;27.03
74334;BME280;62753;40.394;-80.022;2023-01-09T00:29:54;97397.69;;;11.48;27.12
74334;BME280;62753;40.394;-80.022;2023-01-09T00:32:19;97397.15;;;11.93;27.75
74334;BME280;62753;40.394;-80.022;2023-01-09T00:34:44;97396.15;;;11.22;28.10
74334;BME280;62753;40.394;-80.022;2023-01-09T00:37:10;97395.67;;;11.30;28.02
74334;BME280;62753;40.394;-80.022;2023-01-09T00:39:35;97393.77;;;11.55;27.99
74334;BME280;62753;40.394;-80.022;2023-01-09T00:42:01;97387.95;;;11.46;27.97
74334;BME280;62753;40.394;-80.022;2023-01-09T00:44:31;97393.97;;;11.11;27.77
74334;BME280;62753;40.394;-80.022;2023-01-09T00:46:53;97395.85;;;10.98;28.48
74334;BME280;62753;40.394;-80.022;2023-01-09T00:49:17;97392.81;;;11.56;28.01
74334;BME280;62753;40.394;-80.022;2023-01-09T00:51:43;97389.72;;;11.64;27.99
74334;BME280;62753;40.394;-80.022;2023-01-09T00:54:09;97388.90;;;11.43;27.73
74334;BME280;62753;40.394;-80.022;2023-01-09T00:56:34;97387.75;;;11.62;27.80
74334;BME280;62753;40.394;-80.022;2023-01-09T00:58:59;97385.64;;;11.00;28.97
74334;BME280;62753;40.394;-80.022;2023-01-09T01:01:24;97377.63;;;10.85;28.61
74334;BME280;62753;40.394;-80.022;2023-01-09T01:03:49;97369.69;;;11.15;28.67
74334;BME280;62753;40.394;-80.022;2023-01-09T01:06:14;97364.30;;;10.17;29.15
74334;BME280;62753;40.394;-80.022;2023-01-09T01:08:40;97361.78;;;10.57;28.79
74334;BME280;62753;40.394;-80.022;2023-01-09T01:11:08;97362.82;;;11.05;28.87
74334;BME280;62753;40.394;-80.022;2023-01-09T01:13:31;97366.56;;;10.66;28.78
74334;BME280;62753;40.394;-80.022;2023-01-09T01:15:56;97368.70;;;10.97;28.57
74334;BME280;62753;40.394;-80.022;2023-01-09T01:18:22;97366.95;;;10.85;28.89
74334;BME280;62753;40.394;-80.022;2023-01-09T01:20:48;97365.58;;;11.36;28.43
74334;BME280;62753;40.394;-80.022;2023-01-09T01:23:14;97361.84;;;11.33;28.17
74334;BME280;62753;40.394;-80.022;2023-01-09T01:25:40;97355.35;;;11.25;28.60
74334;BME280;62753;40.394;-80.022;2023-01-09T01:28:05;97358.68;;;11.28;28.36
74334;BME280;62753;40.394;-80.022;2023-01-09T01:30:30;97353.99;;;11.11;28.33
74334;BME280;62753;40.394;-80.022;2023-01-09T01:32:56;97349.71;;;10.67;28.79
74334;BME280;62753;40.394;-80.022;2023-01-09T01:35:21;97353.56;;;10.90;28.25
74334;BME280;62753;40.394;-80.022;2023-01-09T01:37:47;97355.14;;;10.69;29.09
74334;BME280;62753;40.394;-80.022;2023-01-09T01:40:12;97351.86;;;10.78;28.25
74334;BME280;62753;40.394;-80.022;2023-01-09T01:42:45;97350.66;;;11.85;27.83
74334;BME280;62753;40.394;-80.022;2023-01-09T01:45:08;97351.09;;;11.92;27.65
74334;BME280;62753;40.394;-80.022;2023-01-09T01:47:35;97353.55;;;11.56;27.08
74334;BME280;62753;40.394;-80.022;2023-01-09T01:49:55;97349.62;;;11.65;27.50
74334;BME280;62753;40.394;-80.022;2023-01-09T01:52:20;97344.43;;;11.64;27.50
74334;BME280;62753;40.394;-80.022;2023-01-09T01:54:46;97340.88;;;11.71;27.73
74334;BME280;62753;40.394;-80.022;2023-01-09T01:57:11;97334.88;;;11.05;28.40
74334;BME280;62753;40.394;-80.022;2023-01-09T01:59:39;97327.05;;;11.00;28.43
74334;BME280;62753;40.394;-80.022;2023-01-09T02:02:02;97322.63;;;11.10;28.54
74334;BME280;62753;40.394;-80.022;2023-01-09T02:04:30;97322.83;;;10.57;28.85
74334;BME280;62753;40.394;-80.022;2023-01-09T02:06:55;97319.25;;;10.59;29.06
74334;BME280;62753;40.394;-80.022;2023-01-09T02:09:19;97319.04;;;10.38;29.96
74334;BME280;62753;40.394;-80.022;2023-01-09T02:11:46;97312.19;;;9.93;30.04
74334;BME280;62753;40.394;-80.022;2023-01-09T02:14:11;97302.82;;;9.64;29.90
74334;BME280;62753;40.394;-80.022;2023-01-09T02:16:44;97293.97;;;9.34;30.99
74334;BME280;62753;40.394;-80.022;2023-01-09T02:19:11;97293.73;;;10.25;30.21
74334;BME280;62753;40.394;-80.022;2023-01-09T02:21:35;97292.16;;;10.55;29.73
74334;BME280;62753;40.394;-80.022;2023-01-09T02:24:08;97287.10;;;9.43;30.74
74334;BME280;62753;40.394;-80.022;2023-01-09T02:26:27;97282.27;;;8.89;31.71
74334;BME280;62753;40.394;-80.022;2023-01-09T02:31:12;97288.87;;;10.01;30.38
74334;BME280;62753;40.394;-80.022;2023-01-09T02:33:44;97291.08;;;9.83;30.28
74334;BME280;62753;40.394;-80.022;2023-01-09T02:36:09;97299.11;;;10.07;29.98
74334;BME280;62753;40.394;-80.022;2023-01-09T02:38:30;97298.53;;;10.20;29.86
74334;BME280;62753;40.394;-80.022;2023-01-09T02:40:55;97297.25;;;11.24;28.66
74334;BME280;62753;40.394;-80.022;2023-01-09T02:43:17;97299.90;;;10.95;28.31
74334;BME280;62753;40.394;-80.022;2023-01-09T02:45:42;97305.62;;;11.25;28.30
74334;BME280;62753;40.394;-80.022;2023-01-09T02:48:09;97311.24;;;11.49;27.83
74334;BME280;62753;40.394;-80.022;2023-01-09T02:50:38;97314.89;;;11.10;27.79
74334;BME280;62753;40.394;-80.022;2023-01-09T02:53:15;97322.10;;;11.75;27.21
74334;BME280;62753;40.394;-80.022;2023-01-09T02:55:33;97324.91;;;11.80;27.42
74334;BME280;62753;40.394;-80.022;2023-01-09T02:57:55;97323.58;;;11.14;28.23
74334;BME280;62753;40.394;-80.022;2023-01-09T03:00:23;97322.96;;;11.22;28.06
74334;BME280;62753;40.394;-80.022;2023-01-09T03:02:45;97323.79;;;12.01;27.68
74334;BME280;62753;40.394;-80.022;2023-01-09T03:05:13;97321.91;;;11.44;27.88
74334;BME280;62753;40.394;-80.022;2023-01-09T03:07:35;97322.93;;;11.60;28.12
74334;BME280;62753;40.394;-80.022;2023-01-09T03:10:02;97321.44;;;11.39;27.94
74334;BME280;62753;40.394;-80.022;2023-01-09T03:12:27;97313.45;;;11.26;28.18
74334;BME280;62753;40.394;-80.022;2023-01-09T03:14:51;97311.23;;;11.60;28.26
74334;BME280;62753;40.394;-80.022;2023-01-09T03:17:20;97309.22;;;11.81;28.89
74334;BME280;62753;40.394;-80.022;2023-01-09T03:19:41;97305.50;;;11.03;28.85
74334;BME280;62753;40.394;-80.022;2023-01-09T03:22:07;97306.96;;;11.26;29.57
74334;BME280;62753;40.394;-80.022;2023-01-09T03:24:30;97307.70;;;11.11;28.71
74334;BME280;62753;40.394;-80.022;2023-01-09T03:26:56;97310.77;;;11.05;29.98
74334;BME280;62753;40.394;-80.022;2023-01-09T03:29:21;97314.37;;;11.20;29.45
74334;BME280;62753;40.394;-80.022;2023-01-09T03:31:47;97321.79;;;11.50;29.58
74334;BME280;62753;40.394;-80.022;2023-01-09T03:34:12;97322.97;;;11.27;29.10
74334;BME280;62753;40.394;-80.022;2023-01-09T03:36:37;97325.41;;;11.55;28.65
74334;BME280;62753;40.394;-80.022;2023-01-09T03:39:03;97320.59;;;11.08;29.25
74334;BME280;62753;40.394;-80.022;2023-01-09T03:41:29;97318.19;;;11.01;29.64
74334;BME280;62753;40.394;-80.022;2023-01-09T03:43:54;97318.41;;;11.14;29.24
74334;BME280;62753;40.394;-80.022;2023-01-09T03:46:19;97321.28;;;11.15;29.52
74334;BME280;62753;40.394;-80.022;2023-01-09T03:48:45;97323.47;;;11.22;30.07
74334;BME280;62753;40.394;-80.022;2023-01-09T03:51:11;97328.57;;;11.13;29.72
74334;BME280;62753;40.394;-80.022;2023-01-09T03:53:37;97332.75;;;11.28;29.64
74334;BME280;62753;40.394;-80.022;2023-01-09T03:56:02;97336.16;;;11.03;29.89
74334;BME280;62753;40.394;-80.022;2023-01-09T03:58:27;97333.58;;;10.88;30.05
74334;BME280;62753;40.394;-80.022;2023-01-09T04:00:57;97336.79;;;10.58;30.55
74334;BME280;62753;40.394;-80.022;2023-01-09T04:03:19;97336.75;;;10.59;30.82
74334;BME280;62753;40.394;-80.022;2023-01-09T04:05:45;97334.14;;;10.55;30.50
74334;BME280;62753;40.394;-80.022;2023-01-09T04:08:10;97336.56;;;10.63;30.72
74334;BME280;62753;40.394;-80.022;2023-01-09T04:10:35;97336.65;;;10.32;30.62
74334;BME280;62753;40.394;-80.022;2023-01-09T04:12:59;97337.86;;;10.40;31.25
74334;BME280;62753;40.394;-80.022;2023-01-09T04:15:25;97330.79;;;9.48;32.51
74334;BME280;62753;40.394;-80.022;2023-01-09T04:17:50;97325.02;;;10.58;31.33
74334;BME280;62753;40.394;-80.022;2023-01-09T04:20:17;97323.65;;;10.65;31.10
74334;BME280;62753;40.394;-80.022;2023-01-09T04:22:42;97319.32;;;10.67;30.84
74334;BME280;62753;40.394;-80.022;2023-01-09T04:25:08;97322.78;;;10.84;30.57
74334;BME280;62753;40.394;-80.022;2023-01-09T04:27:33;97320.94;;;10.88;30.19
74334;BME280;62753;40.394;-80.022;2023-01-09T04:29:58;97322.69;;;11.15;30.11
74334;BME280;62753;40.394;-80.022;2023-01-09T04:32:24;97323.36;;;11.02;30.57
74334;BME280;62753;40.394;-80.022;2023-01-09T04:34:49;97320.63;;;11.31;30.32
74334;BME280;62753;40.394;-80.022;2023-01-09T04:37:14;97318.43;;;11.11;30.48
74334;BME280;62753;40.394;-80.022;2023-01-09T04:39:41;97317.60;;;10.92;30.73
74334;BME280;62753;40.394;-80.022;2023-01-09T04:42:06;97317.66;;;11.09;30.70
74334;BME280;62753;40.394;-80.022;2023-01-09T04:44:31;97316.16;;;10.75;31.24
74334;BME280;62753;40.394;-80.022;2023-01-09T04:46:57;97312.18;;;10.08;32.34
74334;BME280;62753;40.394;-80.022;2023-01-09T04:49:23;97315.92;;;10.30;32.36
74334;BME280;62753;40.394;-80.022;2023-01-09T04:51:48;97318.57;;;10.02;32.57
74334;BME280;62753;40.394;-80.022;2023-01-09T04:54:14;97317.91;;;9.86;33.01
74334;BME280;62753;40.394;-80.022;2023-01-09T04:56:39;97315.71;;;8.98;33.81
74334;BME280;62753;40.394;-80.022;2023-01-09T04:59:05;97318.93;;;8.67;35.15
74334;BME280;62753;40.394;-80.022;2023-01-09T05:01:30;97320.56;;;8.02;35.38
74334;BME280;62753;40.394;-80.022;2023-01-09T05:03:55;97318.89;;;8.76;34.91
74334;BME280;62753;40.394;-80.022;2023-01-09T05:06:20;97313.20;;;8.44;34.55
74334;BME280;62753;40.394;-80.022;2023-01-09T05:08:46;97313.28;;;8.88;34.22
74334;BME280;62753;40.394;-80.022;2023-01-09T05:11:11;97314.58;;;9.00;34.03
74334;BME280;62753;40.394;-80.022;2023-01-09T05:13:37;97311.72;;;9.04;33.57
74334;BME280;62753;40.394;-80.022;2023-01-09T05:16:02;97312.91;;;9.45;33.01
74334;BME280;62753;40.394;-80.022;2023-01-09T05:18:27;97312.49;;;9.09;32.76
74334;BME280;62753;40.394;-80.022;2023-01-09T05:20:52;97312.30;;;9.23;32.83
74334;BME280;62753;40.394;-80.022;2023-01-09T05:23:18;97318.59;;;9.86;32.17
74334;BME280;62753;40.394;-80.022;2023-01-09T05:25:44;97323.83;;;10.05;31.95
74334;BME280;62753;40.394;-80.022;2023-01-09T05:28:10;97320.92;;;9.53;32.18
74334;BME280;62753;40.394;-80.022;2023-01-09T05:30:36;97321.48;;;9.75;32.20
74334;BME280;62753;40.394;-80.022;2023-01-09T05:33:00;97323.29;;;9.53;32.45
74334;BME280;62753;40.394;-80.022;2023-01-09T05:35:26;97323.19;;;9.70;32.17
74334;BME280;62753;40.394;-80.022;2023-01-09T05:37:51;97323.10;;;9.70;32.17
74334;BME280;62753;40.394;-80.022;2023-01-09T05:40:17;97327.80;;;9.85;31.89
74334;BME280;62753;40.394;-80.022;2023-01-09T05:42:43;97327.24;;;9.95;31.62
74334;BME280;62753;40.394;-80.022;2023-01-09T05:45:10;97320.60;;;9.89;31.67
74334;BME280;62753;40.394;-80.022;2023-01-09T05:47:34;97325.38;;;9.28;31.99
74334;BME280;62753;40.394;-80.022;2023-01-09T05:49:59;97328.54;;;9.46;31.89
74334;BME280;62753;40.394;-80.022;2023-01-09T05:52:25;97324.33;;;9.57;32.25
74334;BME280;62753;40.394;-80.022;2023-01-09T05:54:50;97329.45;;;9.86;31.64
74334;BME280;62753;40.394;-80.022;2023-01-09T05:57:15;97331.38;;;9.50;32.21
74334;BME280;62753;40.394;-80.022;2023-01-09T05:59:41;97333.75;;;9.09;32.69
74334;BME280;62753;40.394;-80.022;2023-01-09T06:02:06;97331.94;;;9.31;32.88
74334;BME280;62753;40.394;-80.022;2023-01-09T06:04:31;97336.73;;;8.31;33.72
74334;BME280;62753;40.394;-80.022;2023-01-09T06:06:57;97342.81;;;9.12;33.36
74334;BME280;62753;40.394;-80.022;2023-01-09T06:09:22;97350.28;;;8.39;33.80
74334;BME280;62753;40.394;-80.022;2023-01-09T06:11:48;97350.83;;;7.44;35.61
74334;BME280;62753;40.394;-80.022;2023-01-09T06:14:14;97350.26;;;7.42;36.52
74334;BME280;62753;40.394;-80.022;2023-01-09T06:16:39;97345.57;;;7.38;36.93
74334;BME280;62753;40.394;-80.022;2023-01-09T06:19:04;97347.56;;;6.98;37.40
74334;BME280;62753;40.394;-80.022;2023-01-09T06:21:29;97347.62;;;6.42;38.15
74334;BME280;62753;40.394;-80.022;2023-01-09T06:23:55;97348.44;;;7.11;37.31
74334;BME280;62753;40.394;-80.022;2023-01-09T06:26:21;97348.91;;;7.85;36.43
74334;BME280;62753;40.394;-80.022;2023-01-09T06:28:46;97349.73;;;7.91;36.15
74334;BME280;62753;40.394;-80.022;2023-01-09T06:31:11;97352.38;;;7.57;36.00
74334;BME280;62753;40.394;-80.022;2023-01-09T06:33:36;97358.31;;;7.99;35.62
74334;BME280;62753;40.394;-80.022;2023-01-09T06:36:01;97356.94;;;7.67;35.93
74334;BME280;62753;40.394;-80.022;2023-01-09T06:38:26;97358.86;;;7.98;35.08
74334;BME280;62753;40.394;-80.022;2023-01-09T06:40:52;97364.54;;;7.85;35.00
74334;BME280;62753;40.394;-80.022;2023-01-09T06:43:17;97362.56;;;7.39;35.76
74334;BME280;62753;40.394;-80.022;2023-01-09T06:45:42;97362.63;;;7.02;36.64
74334;BME280;62753;40.394;-80.022;2023-01-09T06:48:08;97362.11;;;7.78;35.47
74334;BME280;62753;40.394;-80.022;2023-01-09T06:50:33;97366.37;;;8.41;35.03
74334;BME280;62753;40.394;-80.022;2023-01-09T06:52:59;97369.98;;;8.42;34.85
74334;BME280;62753;40.394;-80.022;2023-01-09T06:55:24;97371.24;;;8.19;35.15
74334;BME280;62753;40.394;-80.022;2023-01-09T06:57:49;97374.27;;;8.33;34.24
74334;BME280;62753;40.394;-80.022;2023-01-09T07:00:15;97376.78;;;8.05;35.32
74334;BME280;62753;40.394;-80.022;2023-01-09T07:02:39;97378.30;;;8.16;35.27
74334;BME280;62753;40.394;-80.022;2023-01-09T07:05:05;97375.55;;;7.01;36.78
74334;BME280;62753;40.394;-80.022;2023-01-09T07:07:30;97382.10;;;6.27;38.72
74334;BME280;62753;40.394;-80.022;2023-01-09T07:09:55;97382.64;;;6.68;37.78
74334;BME280;62753;40.394;-80.022;2023-01-09T07:12:21;97392.81;;;7.43;37.01
74334;BME280;62753;40.394;-80.022;2023-01-09T07:14:46;97402.83;;;6.18;38.92
74334;BME280;62753;40.394;-80.022;2023-01-09T07:17:12;97403.64;;;6.89;38.25
74334;BME280;62753;40.394;-80.022;2023-01-09T07:19:37;97410.92;;;5.88;39.31
74334;BME280;62753;40.394;-80.022;2023-01-09T07:22:02;97418.45;;;5.84;39.53
74334;BME280;62753;40.394;-80.022;2023-01-09T07:24:28;97420.07;;;5.41;40.44
74334;BME280;62753;40.394;-80.022;2023-01-09T07:26:54;97423.87;;;4.73;41.69
74334;BME280;62753;40.394;-80.022;2023-01-09T07:29:19;97430.36;;;4.78;42.64
74334;BME280;62753;40.394;-80.022;2023-01-09T07:31:45;97433.04;;;4.33;43.24
74334;BME280;62753;40.394;-80.022;2023-01-09T07:34:11;97433.75;;;3.50;45.74
74334;BME280;62753;40.394;-80.022;2023-01-09T07:36:36;97439.92;;;4.59;43.03
74334;BME280;62753;40.394;-80.022;2023-01-09T07:39:01;97441.03;;;5.40;41.26
74334;BME280;62753;40.394;-80.022;2023-01-09T07:41:26;97440.27;;;5.58;40.31
74334;BME280;62753;40.394;-80.022;2023-01-09T07:43:52;97440.23;;;5.12;41.69
74334;BME280;62753;40.394;-80.022;2023-01-09T07:46:17;97439.46;;;6.00;39.47
74334;BME280;62753;40.394;-80.022;2023-01-09T07:48:43;97438.84;;;5.95;39.91
74334;BME280;62753;40.394;-80.022;2023-01-09T07:51:08;97440.89;;;6.48;38.76
74334;BME280;62753;40.394;-80.022;2023-01-09T07:53:33;97441.62;;;5.79;39.57
74334;BME280;62753;40.394;-80.022;2023-01-09T07:55:59;97443.74;;;6.46;38.45
74334;BME280;62753;40.394;-80.022;2023-01-09T07:58:25;97444.00;;;6.34;38.22
74334;BME280;62753;40.394;-80.022;2023-01-09T08:00:50;97442.21;;;6.59;37.81
74334;BME280;62753;40.394;-80.022;2023-01-09T08:03:15;97435.02;;;6.71;36.98
74334;BME280;62753;40.394;-80.022;2023-01-09T08:05:41;97429.55;;;7.22;36.07
74334;BME280;62753;40.394;-80.022;2023-01-09T08:08:06;97429.29;;;6.97;36.00
74334;BME280;62753;40.394;-80.022;2023-01-09T08:10:31;97430.31;;;7.08;36.46
74334;BME280;62753;40.394;-80.022;2023-01-09T08:12:57;97439.08;;;7.11;36.17
74334;BME280;62753;40.394;-80.022;2023-01-09T08:15:23;97433.42;;;7.17;36.10
74334;BME280;62753;40.394;-80.022;2023-01-09T08:17:48;97426.74;;;7.20;35.51
74334;BME280;62753;40.394;-80.022;2023-01-09T08:20:15;97428.74;;;7.60;35.38
74334;BME280;62753;40.394;-80.022;2023-01-09T08:22:40;97424.99;;;7.87;34.69
74334;BME280;62753;40.394;-80.022;2023-01-09T08:25:04;97426.54;;;6.84;36.76
74334;BME280;62753;40.394;-80.022;2023-01-09T08:27:28;97421.13;;;6.29;37.67
74334;BME280;62753;40.394;-80.022;2023-01-09T08:29:54;97421.53;;;6.88;36.46
74334;BME280;62753;40.394;-80.022;2023-01-09T08:32:19;97414.12;;;6.34;37.86
74334;BME280;62753;40.394;-80.022;2023-01-09T08:34:44;97408.33;;;6.91;36.89
74334;BME280;62753;40.394;-80.022;2023-01-09T08:37:09;97407.77;;;6.62;37.01
74334;BME280;62753;40.394;-80.022;2023-01-09T08:39:35;97407.54;;;6.79;36.58
74334;BME280;62753;40.394;-80.022;2023-01-09T08:42:00;97411.75;;;7.62;35.49
74334;BME280;62753;40.394;-80.022;2023-01-09T08:44:25;97417.35;;;6.41;37.06
74334;BME280;62753;40.394;-80.022;2023-01-09T08:46:50;97418.13;;;7.10;36.22
74334;BME280;62753;40.394;-80.022;2023-01-09T08:49:15;97416.25;;;6.71;36.28
74334;BME280;62753;40.394;-80.022;2023-01-09T08:51:40;97418.73;;;6.82;36.49
74334;BME280;62753;40.394;-80.022;2023-01-09T08:54:06;97415.32;;;6.61;36.78
74334;BME280;62753;40.394;-80.022;2023-01-09T08:56:31;97420.39;;;7.18;36.22
74334;BME280;62753;40.394;-80.022;2023-01-09T08:58:57;97430.51;;;6.26;37.29
74334;BME280;62753;40.394;-80.022;2023-01-09T09:01:22;97439.17;;;5.70;38.00
74334;BME280;62753;40.394;-80.022;2023-01-09T09:03:47;97446.79;;;5.82;38.81
74334;BME280;62753;40.394;-80.022;2023-01-09T09:06:12;97444.90;;;6.05;38.73
74334;BME280;62753;40.394;-80.022;2023-01-09T09:08:37;97444.70;;;5.93;38.99
74334;BME280;62753;40.394;-80.022;2023-01-09T09:11:03;97447.06;;;5.82;38.49
74334;BME280;62753;40.394;-80.022;2023-01-09T09:13:28;97450.11;;;4.45;41.63
74334;BME280;62753;40.394;-80.022;2023-01-09T09:15:53;97438.07;;;4.96;40.07
74334;BME280;62753;40.394;-80.022;2023-01-09T09:18:19;97427.55;;;5.17;40.19
74334;BME280;62753;40.394;-80.022;2023-01-09T09:20:44;97415.30;;;5.07;40.42
74334;BME280;62753;40.394;-80.022;2023-01-09T09:23:10;97419.08;;;5.69;39.37
74334;BME280;62753;40.394;-80.022;2023-01-09T09:25:36;97427.83;;;5.93;38.85
74334;BME280;62753;40.394;-80.022;2023-01-09T09:28:01;97439.14;;;5.93;38.51
74334;BME280;62753;40.394;-80.022;2023-01-09T09:30:27;97444.29;;;6.71;36.48
74334;BME280;62753;40.394;-80.022;2023-01-09T09:32:52;97437.21;;;5.90;37.86
74334;BME280;62753;40.394;-80.022;2023-01-09T09:35:18;97435.28;;;5.12;39.70
74334;BME280;62753;40.394;-80.022;2023-01-09T09:37:52;97431.11;;;4.79;38.71
74334;BME280;62753;40.394;-80.022;2023-01-09T09:40:15;97427.34;;;5.16;39.16
74334;BME280;62753;40.394;-80.022;2023-01-09T09:42:48;97436.61;;;4.65;40.44
74334;BME280;62753;40.394;-80.022;2023-01-09T09:45:10;97447.85;;;5.71;38.27
74334;BME280;62753;40.394;-80.022;2023-01-09T09:47:41;97455.26;;;4.11;41.46
74334;BME280;62753;40.394;-80.022;2023-01-09T09:49:59;97448.87;;;4.49;40.46
74334;BME280;62753;40.394;-80.022;2023-01-09T09:52:24;97441.99;;;4.90;39.32
74334;BME280;62753;40.394;-80.022;2023-01-09T09:54:47;97433.57;;;4.64;39.27
74334;BME280;62753;40.394;-80.022;2023-01-09T09:57:12;97437.76;;;6.54;37.09
74334;BME280;62753;40.394;-80.022;2023-01-09T09:59:35;97438.22;;;6.37;36.23
74334;BME280;62753;40.394;-80.022;2023-01-09T10:02:01;97439.09;;;5.54;37.41
74334;BME280;62753;40.394;-80.022;2023-01-09T10:04:25;97446.90;;;5.96;36.99
74334;BME280;62753;40.394;-80.022;2023-01-09T10:06:51;97446.59;;;5.89;37.92
74334;BME280;62753;40.394;-80.022;2023-01-09T10:09:22;97449.89;;;5.37;38.26
74334;BME280;62753;40.394;-80.022;2023-01-09T10:11:46;97449.48;;;5.04;39.46
74334;BME280;62753;40.394;-80.022;2023-01-09T10:14:08;97448.54;;;5.00;39.68
74334;BME280;62753;40.394;-80.022;2023-01-09T10:16:43;97450.73;;;5.40;37.81
74334;BME280;62753;40.394;-80.022;2023-01-09T10:19:06;97445.25;;;5.60;37.46
74334;BME280;62753;40.394;-80.022;2023-01-09T10:21:28;97444.18;;;5.01;38.61
74334;BME280;62753;40.394;-80.022;2023-01-09T10:24:00;97437.39;;;3.59;40.50
74334;BME280;62753;40.394;-80.022;2023-01-09T10:26:22;97448.60;;;3.39;40.68
74334;BME280;62753;40.394;-80.022;2023-01-09T10:28:54;97458.83;;;3.75;41.40
74334;BME280;62753;40.394;-80.022;2023-01-09T10:31:11;97458.98;;;3.99;41.34
74334;BME280;62753;40.394;-80.022;2023-01-09T10:33:41;97451.66;;;4.16;39.58
74334;BME280;62753;40.394;-80.022;2023-01-09T10:36:16;97451.70;;;4.76;38.65
74334;BME280;62753;40.394;-80.022;2023-01-09T10:38:26;97450.50;;;5.07;38.07
74334;BME280;62753;40.394;-80.022;2023-01-09T10:40:51;97452.89;;;5.18;37.32
74334;BME280;62753;40.394;-80.022;2023-01-09T10:43:17;97459.38;;;6.10;36.18
74334;BME280;62753;40.394;-80.022;2023-01-09T10:45:41;97462.51;;;5.27;36.77
74334;BME280;62753;40.394;-80.022;2023-01-09T10:48:10;97459.06;;;5.13;36.82
74334;BME280;62753;40.394;-80.022;2023-01-09T10:50:32;97456.63;;;5.41;36.71
74334;BME280;62753;40.394;-80.022;2023-01-09T10:52:55;97473.19;;;4.00;38.21
74334;BME280;62753;40.394;-80.022;2023-01-09T10:55:26;97484.62;;;4.72;38.32
74334;BME280;62753;40.394;-80.022;2023-01-09T10:57:49;97481.43;;;5.03;37.90
74334;BME280;62753;40.394;-80.022;2023-01-09T11:00:16;97480.32;;;4.91;37.61
74334;BME280;62753;40.394;-80.022;2023-01-09T11:02:35;97483.50;;;4.74;38.58
74334;BME280;62753;40.394;-80.022;2023-01-09T11:05:00;97492.78;;;4.82;37.76
74334;BME280;62753;40.394;-80.022;2023-01-09T11:07:28;97502.44;;;4.82;37.47
74334;BME280;62753;40.394;-80.022;2023-01-09T11:09:56;97499.69;;;4.30;38.67
74334;BME280;62753;40.394;-80.022;2023-01-09T11:12:22;97496.01;;;4.42;39.73
74334;BME280;62753;40.394;-80.022;2023-01-09T11:14:41;97493.25;;;5.06;38.18
74334;BME280;62753;40.394;-80.022;2023-01-09T11:17:20;97498.56;;;4.61;38.59
74334;BME280;62753;40.394;-80.022;2023-01-09T11:19:32;97503.58;;;5.13;37.30
74334;BME280;62753;40.394;-80.022;2023-01-09T11:22:06;97504.90;;;5.81;35.94
74334;BME280;62753;40.394;-80.022;2023-01-09T11:24:28;97502.60;;;6.47;34.63
74334;BME280;62753;40.394;-80.022;2023-01-09T11:26:50;97504.75;;;5.85;34.88
74334;BME280;62753;40.394;-80.022;2023-01-09T11:29:15;97503.25;;;6.23;34.06
74334;BME280;62753;40.394;-80.022;2023-01-09T11:31:40;97509.97;;;6.72;33.60
74334;BME280;62753;40.394;-80.022;2023-01-09T11:34:11;97510.65;;;7.22;32.66
74334;BME280;62753;40.394;-80.022;2023-01-09T11:36:30;97507.63;;;7.15;31.93
74334;BME280;62753;40.394;-80.022;2023-01-09T11:38:56;97505.35;;;6.99;32.73
74334;BME280;62753;40.394;-80.022;2023-01-09T11:41:22;97500.46;;;5.80;33.70
74334;BME280;62753;40.394;-80.022;2023-01-09T11:43:48;97505.69;;;5.21;34.88
74334;BME280;62753;40.394;-80.022;2023-01-09T11:48:39;97497.03;;;5.36;35.39
74334;BME280;62753;40.394;-80.022;2023-01-09T11:51:05;97497.00;;;4.44;37.04
74334;BME280;62753;40.394;-80.022;2023-01-09T11:53:27;97497.14;;;4.34;36.65
74334;BME280;62753;40.394;-80.022;2023-01-09T11:55:58;97492.50;;;5.00;36.48
74334;BME280;62753;40.394;-80.022;2023-01-09T11:58:19;97487.68;;;3.63;37.18
74334;BME280;62753;40.394;-80.022;2023-01-09T12:00:50;97496.70;;;4.30;37.13
74334;BME280;62753;40.394;-80.022;2023-01-09T12:03:16;97504.11;;;4.45;37.57
74334;BME280;62753;40.394;-80.022;2023-01-09T12:05:41;97506.30;;;3.39;38.75
74334;BME280;62753;40.394;-80.022;2023-01-09T12:08:14;97511.96;;;4.93;36.05
74334;BME280;62753;40.394;-80.022;2023-01-09T12:10:38;97508.36;;;4.58;36.84
74334;BME280;62753;40.394;-80.022;2023-01-09T12:12:56;97508.14;;;3.91;37.94
74334;BME280;62753;40.394;-80.022;2023-01-09T12:15:24;97514.28;;;3.63;38.62
74334;BME280;62753;40.394;-80.022;2023-01-09T12:17:49;97514.15;;;3.57;38.85
74334;BME280;62753;40.394;-80.022;2023-01-09T12:20:21;97517.47;;;3.65;38.50
74334;BME280;62753;40.394;-80.022;2023-01-09T12:22:37;97523.85;;;4.43;37.42
74334;BME280;62753;40.394;-80.022;2023-01-09T12:25:05;97532.64;;;4.65;36.49
74334;BME280;62753;40.394;-80.022;2023-01-09T12:27:30;97553.73;;;3.24;38.45
74334;BME280;62753;40.394;-80.022;2023-01-09T12:29:58;97561.01;;;3.61;38.37
74334;BME280;62753;40.394;-80.022;2023-01-09T12:32:24;97565.88;;;3.28;38.84
74334;BME280;62753;40.394;-80.022;2023-01-09T12:34:50;97567.56;;;4.84;37.35
74334;BME280;62753;40.394;-80.022;2023-01-09T12:37:12;97561.98;;;4.78;36.96
74334;BME280;62753;40.394;-80.022;2023-01-09T12:39:34;97564.42;;;4.50;36.70